sensor_id;sensor_type;location;lat;lon;timestamp;pressure;altitude;pressure_sealevel;temperature;humidity
64821;BME280;51256;55.654;37.264;2022-09-20T00:01:43;97862.38;;;10.56;77.92
64821;BME280;51256;55.654;37.264;2022-09-20T00:04:08;97860.34;;;10.58;78.44
64821;BME280;51256;55.654;37.264;2022-09-20T00:06:34;97871.41;;;10.61;78.28
64821;BME280;51256;55.654;37.264;2022-09-20T00:09:00;97869.94;;;10.59;78.54
64821;BME280;51256;55.654;37.264;2022-09-20T00:11:29;97877.16;;;10.65;78.47
64821;BME280;51256;55.654;37.264;2022-09-20T00:13:57;97876.16;;;10.66;77.99
64821;BME280;51256;55.654;37.264;2022-09-20T00:16:25;97890.91;;;10.68;78.10
64821;BME280;51256;55.654;37.264;2022-09-20T00:18:53;97906.38;;;10.65;77.64
64821;BME280;51256;55.654;37.264;2022-09-20T00:21:22;97886.50;;;10.61;77.70
64821;BME280;51256;55.654;37.264;2022-09-20T00:23:48;97881.66;;;10.64;77.64
64821;BME280;51256;55.654;37.264;2022-09-20T00:26:13;97896.75;;;10.64;77.99
64821;BME280;51256;55.654;37.264;2022-09-20T00:28:41;97908.81;;;10.66;78.15
64821;BME280;51256;55.654;37.264;2022-09-20T00:31:07;97913.50;;;10.64;77.90
64821;BME280;51256;55.654;37.264;2022-09-20T00:33:33;97917.63;;;10.67;77.89
64821;BME280;51256;55.654;37.264;2022-09-20T00:36:17;97917.25;;;10.70;78.27
64821;BME280;51256;55.654;37.264;2022-09-20T00:38:42;97916.78;;;10.66;78.14
64821;BME280;51256;55.654;37.264;2022-09-20T00:41:08;97923.22;;;10.72;77.65
64821;BME280;51256;55.654;37.264;2022-09-20T00:43:39;97935.22;;;10.68;77.82
64821;BME280;51256;55.654;37.264;2022-09-20T00:48:44;97936.22;;;10.67;78.20
64821;BME280;51256;55.654;37.264;2022-09-20T00:51:14;97927.41;;;10.66;78.19
64821;BME280;51256;55.654;37.264;2022-09-20T00:53:45;97929.97;;;10.60;77.91
64821;BME280;51256;55.654;37.264;2022-09-20T00:56:15;97941.69;;;10.65;78.14
64821;BME280;51256;55.654;37.264;2022-09-20T00:58:50;97929.97;;;10.60;78.25
64821;BME280;51256;55.654;37.264;2022-09-20T01:01:17;97942.69;;;10.64;77.38
64821;BME280;51256;55.654;37.264;2022-09-20T01:03:43;97925.59;;;10.67;77.60
64821;BME280;51256;55.654;37.264;2022-09-20T01:06:12;97932.91;;;10.65;77.60
64821;BME280;51256;55.654;37.264;2022-09-20T01:08:42;97942.31;;;10.67;77.54
64821;BME280;51256;55.654;37.264;2022-09-20T01:11:09;97953.78;;;10.68;77.75
64821;BME280;51256;55.654;37.264;2022-09-20T01:13:35;97956.97;;;10.63;77.66
64821;BME280;51256;55.654;37.264;2022-09-20T01:16:01;97963.28;;;10.62;77.41
64821;BME280;51256;55.654;37.264;2022-09-20T01:18:28;97957.50;;;10.59;77.60
64821;BME280;51256;55.654;37.264;2022-09-20T01:20:57;97962.19;;;10.57;77.95
64821;BME280;51256;55.654;37.264;2022-09-20T01:24:02;97964.66;;;10.58;77.99
64821;BME280;51256;55.654;37.264;2022-09-20T01:32:40;97979.47;;;10.52;78.04
64821;BME280;51256;55.654;37.264;2022-09-20T01:35:09;97969.50;;;10.54;78.26
64821;BME280;51256;55.654;37.264;2022-09-20T01:37:46;97982.84;;;10.61;78.12
64821;BME280;51256;55.654;37.264;2022-09-20T01:40:34;97986.16;;;10.63;78.21
64821;BME280;51256;55.654;37.264;2022-09-20T01:45:42;97997.44;;;10.65;77.35
64821;BME280;51256;55.654;37.264;2022-09-20T01:48:32;97998.06;;;10.67;78.06
64821;BME280;51256;55.654;37.264;2022-09-20T02:04:50;98017.56;;;10.75;77.73
64821;BME280;51256;55.654;37.264;2022-09-20T02:16:28;98048.03;;;10.79;77.68
64821;BME280;51256;55.654;37.264;2022-09-20T02:19:19;98033.50;;;10.75;77.18
64821;BME280;51256;55.654;37.264;2022-09-20T02:24:50;98054.72;;;10.75;77.29
64821;BME280;51256;55.654;37.264;2022-09-20T02:27:47;98048.84;;;10.64;77.51
64821;BME280;51256;55.654;37.264;2022-09-20T02:34:00;98062.41;;;10.69;77.46
64821;BME280;51256;55.654;37.264;2022-09-20T02:36:39;98078.88;;;10.65;77.93
64821;BME280;51256;55.654;37.264;2022-09-20T02:42:24;98084.06;;;10.58;77.85
64821;BME280;51256;55.654;37.264;2022-09-20T02:45:06;98093.78;;;10.66;77.92
64821;BME280;51256;55.654;37.264;2022-09-20T02:47:38;98102.22;;;10.69;77.50
64821;BME280;51256;55.654;37.264;2022-09-20T02:59:00;98119.81;;;10.70;77.36
64821;BME280;51256;55.654;37.264;2022-09-20T03:07:22;98135.72;;;10.70;77.34
64821;BME280;51256;55.654;37.264;2022-09-20T03:29:04;98171.53;;;10.75;77.39
64821;BME280;51256;55.654;37.264;2022-09-20T03:31:50;98174.84;;;10.77;77.29
64821;BME280;51256;55.654;37.264;2022-09-20T03:42:52;98186.56;;;10.82;76.77
64821;BME280;51256;55.654;37.264;2022-09-20T03:48:41;98202.44;;;10.91;76.54
64821;BME280;51256;55.654;37.264;2022-09-20T03:51:18;98211.69;;;10.95;76.59
64821;BME280;51256;55.654;37.264;2022-09-20T04:07:18;98234.41;;;10.97;76.68
64821;BME280;51256;55.654;37.264;2022-09-20T04:13:10;98240.19;;;11.01;76.75
64821;BME280;51256;55.654;37.264;2022-09-20T04:19:11;98245.81;;;11.06;76.69
64821;BME280;51256;55.654;37.264;2022-09-20T04:26:29;98268.22;;;11.03;76.33
64821;BME280;51256;55.654;37.264;2022-09-20T04:31:38;98265.09;;;11.00;76.91
64821;BME280;51256;55.654;37.264;2022-09-20T04:34:20;98264.44;;;10.98;76.81
64821;BME280;51256;55.654;37.264;2022-09-20T04:44:49;98279.03;;;11.02;76.49
64821;BME280;51256;55.654;37.264;2022-09-20T05:04:20;98306.09;;;10.97;77.20
64821;BME280;51256;55.654;37.264;2022-09-20T05:20:39;98322.25;;;11.80;75.06
64821;BME280;51256;55.654;37.264;2022-09-20T05:31:19;98354.81;;;12.06;73.72
64821;BME280;51256;55.654;37.264;2022-09-20T05:36:48;98354.19;;;12.19;72.71
64821;BME280;51256;55.654;37.264;2022-09-20T05:41:58;98372.53;;;12.13;73.01
64821;BME280;51256;55.654;37.264;2022-09-20T05:47:52;98384.91;;;12.06;72.85
64821;BME280;51256;55.654;37.264;2022-09-20T05:50:28;98375.06;;;12.07;73.16
64821;BME280;51256;55.654;37.264;2022-09-20T05:55:57;98398.84;;;12.08;73.26
64821;BME280;51256;55.654;37.264;2022-09-20T06:01:19;98392.59;;;12.01;73.25
64821;BME280;51256;55.654;37.264;2022-09-20T06:03:52;98385.56;;;12.08;73.05
64821;BME280;51256;55.654;37.264;2022-09-20T06:07:09;98403.28;;;12.31;72.73
64821;BME280;51256;55.654;37.264;2022-09-20T06:18:21;98416.91;;;12.96;70.24
64821;BME280;51256;55.654;37.264;2022-09-20T06:21:15;98423.50;;;12.85;70.47
64821;BME280;51256;55.654;37.264;2022-09-20T06:23:47;98403.94;;;12.48;69.07
64821;BME280;51256;55.654;37.264;2022-09-20T06:26:16;98414.03;;;12.38;69.83
64821;BME280;51256;55.654;37.264;2022-09-20T06:28:50;98422.94;;;12.30;69.95
64821;BME280;51256;55.654;37.264;2022-09-20T06:31:17;98412.63;;;12.27;69.86
64821;BME280;51256;55.654;37.264;2022-09-20T06:33:54;98435.50;;;12.36;69.92
64821;BME280;51256;55.654;37.264;2022-09-20T06:36:35;98428.91;;;12.32;69.57
64821;BME280;51256;55.654;37.264;2022-09-20T06:42:17;98433.16;;;12.18;69.11
64821;BME280;51256;55.654;37.264;2022-09-20T06:44:42;98426.72;;;12.36;69.39
64821;BME280;51256;55.654;37.264;2022-09-20T06:47:09;98443.72;;;12.49;68.48
64821;BME280;51256;55.654;37.264;2022-09-20T06:49:35;98429.75;;;12.62;68.13
64821;BME280;51256;55.654;37.264;2022-09-20T06:52:04;98441.81;;;12.88;67.70
64821;BME280;51256;55.654;37.264;2022-09-20T06:54:30;98449.75;;;13.18;67.89
64821;BME280;51256;55.654;37.264;2022-09-20T06:56:56;98456.19;;;13.39;67.09
64821;BME280;51256;55.654;37.264;2022-09-20T06:59:22;98449.47;;;13.28;66.60
64821;BME280;51256;55.654;37.264;2022-09-20T07:01:47;98464.38;;;13.37;66.70
64821;BME280;51256;55.654;37.264;2022-09-20T07:04:13;98452.31;;;13.41;66.78
64821;BME280;51256;55.654;37.264;2022-09-20T07:06:38;98467.47;;;13.56;65.71
64821;BME280;51256;55.654;37.264;2022-09-20T07:09:05;98460.09;;;13.58;65.87
64821;BME280;51256;55.654;37.264;2022-09-20T07:11:30;98450.97;;;13.67;65.96
64821;BME280;51256;55.654;37.264;2022-09-20T07:13:58;98476.25;;;13.71;65.70
64821;BME280;51256;55.654;37.264;2022-09-20T07:16:24;98473.78;;;13.70;64.97
64821;BME280;51256;55.654;37.264;2022-09-20T07:18:51;98470.06;;;13.71;65.81
64821;BME280;51256;55.654;37.264;2022-09-20T07:21:18;98496.13;;;13.69;65.63
64821;BME280;51256;55.654;37.264;2022-09-20T07:23:44;98474.13;;;13.67;65.63
64821;BME280;51256;55.654;37.264;2022-09-20T07:28:48;98490.66;;;13.77;64.84
64821;BME280;51256;55.654;37.264;2022-09-20T07:31:16;98501.97;;;13.79;64.83
64821;BME280;51256;55.654;37.264;2022-09-20T07:33:41;98487.56;;;13.95;65.00
64821;BME280;51256;55.654;37.264;2022-09-20T07:36:08;98498.88;;;13.97;64.80
64821;BME280;51256;55.654;37.264;2022-09-20T07:38:34;98495.63;;;14.02;64.26
64821;BME280;51256;55.654;37.264;2022-09-20T07:41:01;98495.31;;;13.90;64.44
64821;BME280;51256;55.654;37.264;2022-09-20T07:43:28;98496.78;;;13.92;65.08
64821;BME280;51256;55.654;37.264;2022-09-20T07:45:55;98487.56;;;14.17;64.60
64821;BME280;51256;55.654;37.264;2022-09-20T07:48:43;98501.03;;;14.30;63.89
64821;BME280;51256;55.654;37.264;2022-09-20T07:51:12;98504.28;;;14.25;63.41
64821;BME280;51256;55.654;37.264;2022-09-20T07:53:38;98505.34;;;14.09;63.58
64821;BME280;51256;55.654;37.264;2022-09-20T07:56:11;98500.72;;;14.18;63.81
64821;BME280;51256;55.654;37.264;2022-09-20T07:58:37;98493.56;;;14.47;62.92
64821;BME280;51256;55.654;37.264;2022-09-20T08:01:06;98508.19;;;14.73;62.27
64821;BME280;51256;55.654;37.264;2022-09-20T08:03:32;98507.53;;;14.99;61.83
64821;BME280;51256;55.654;37.264;2022-09-20T08:06:10;98510.53;;;15.24;61.35
64821;BME280;51256;55.654;37.264;2022-09-20T08:08:39;98504.38;;;15.24;60.34
64821;BME280;51256;55.654;37.264;2022-09-20T08:13:38;98493.84;;;15.16;60.59
64821;BME280;51256;55.654;37.264;2022-09-20T08:16:05;98519.66;;;14.95;60.69
64821;BME280;51256;55.654;37.264;2022-09-20T08:18:32;98517.97;;;14.87;59.86
64821;BME280;51256;55.654;37.264;2022-09-20T08:21:05;98520.50;;;14.67;60.64
64821;BME280;51256;55.654;37.264;2022-09-20T08:23:38;98512.53;;;14.52;61.31
64821;BME280;51256;55.654;37.264;2022-09-20T08:26:05;98532.69;;;14.55;61.31
64821;BME280;51256;55.654;37.264;2022-09-20T08:28:31;98538.19;;;14.53;61.56
64821;BME280;51256;55.654;37.264;2022-09-20T08:31:09;98511.22;;;14.20;61.08
64821;BME280;51256;55.654;37.264;2022-09-20T08:33:35;98517.47;;;14.12;61.21
64821;BME280;51256;55.654;37.264;2022-09-20T08:36:03;98536.56;;;14.09;61.30
64821;BME280;51256;55.654;37.264;2022-09-20T08:38:30;98526.53;;;14.11;61.15
64821;BME280;51256;55.654;37.264;2022-09-20T08:40:59;98535.84;;;14.22;61.04
64821;BME280;51256;55.654;37.264;2022-09-20T08:43:27;98539.94;;;14.39;61.32
64821;BME280;51256;55.654;37.264;2022-09-20T08:45:57;98547.25;;;14.52;60.28
64821;BME280;51256;55.654;37.264;2022-09-20T08:48:27;98552.06;;;14.64;59.87
64821;BME280;51256;55.654;37.264;2022-09-20T08:50:56;98560.84;;;14.57;59.31
64821;BME280;51256;55.654;37.264;2022-09-20T08:53:22;98554.38;;;14.45;60.26
64821;BME280;51256;55.654;37.264;2022-09-20T08:55:47;98557.59;;;14.40;60.32
64821;BME280;51256;55.654;37.264;2022-09-20T08:58:13;98563.91;;;14.33;60.65
64821;BME280;51256;55.654;37.264;2022-09-20T09:00:39;98564.47;;;14.28;61.51
64821;BME280;51256;55.654;37.264;2022-09-20T09:03:12;98557.16;;;14.37;61.25
64821;BME280;51256;55.654;37.264;2022-09-20T09:05:47;98574.84;;;14.38;61.19
64821;BME280;51256;55.654;37.264;2022-09-20T09:10:42;98561.22;;;14.33;61.94
64821;BME280;51256;55.654;37.264;2022-09-20T09:13:25;98575.97;;;14.50;61.93
64821;BME280;51256;55.654;37.264;2022-09-20T09:15:58;98553.72;;;14.65;61.55
64821;BME280;51256;55.654;37.264;2022-09-20T09:18:44;98560.75;;;14.94;61.21
64821;BME280;51256;55.654;37.264;2022-09-20T09:21:19;98569.56;;;15.65;59.66
64821;BME280;51256;55.654;37.264;2022-09-20T09:26:26;98574.28;;;16.04;57.80
64821;BME280;51256;55.654;37.264;2022-09-20T09:29:15;98574.28;;;16.04;57.68
64821;BME280;51256;55.654;37.264;2022-09-20T09:31:41;98574.22;;;15.84;57.99
64821;BME280;51256;55.654;37.264;2022-09-20T09:36:50;98578.28;;;16.29;57.49
64821;BME280;51256;55.654;37.264;2022-09-20T09:39:31;98585.25;;;16.23;55.41
64821;BME280;51256;55.654;37.264;2022-09-20T09:41:57;98584.34;;;15.89;56.51
64821;BME280;51256;55.654;37.264;2022-09-20T09:44:30;98577.38;;;16.01;57.12
64821;BME280;51256;55.654;37.264;2022-09-20T09:47:00;98591.00;;;16.07;56.21
64821;BME280;51256;55.654;37.264;2022-09-20T09:49:28;98589.81;;;15.81;56.50
64821;BME280;51256;55.654;37.264;2022-09-20T09:54:35;98594.50;;;15.65;57.31
64821;BME280;51256;55.654;37.264;2022-09-20T10:05:08;98607.50;;;15.75;57.05
64821;BME280;51256;55.654;37.264;2022-09-20T10:07:43;98609.25;;;15.54;58.08
64821;BME280;51256;55.654;37.264;2022-09-20T10:24:00;98617.59;;;15.73;57.28
64821;BME280;51256;55.654;37.264;2022-09-20T10:26:34;98629.97;;;15.81;57.49
64821;BME280;51256;55.654;37.264;2022-09-20T10:55:33;98647.00;;;15.66;56.57
64821;BME280;51256;55.654;37.264;2022-09-20T11:01:10;98653.09;;;15.88;56.33
64821;BME280;51256;55.654;37.264;2022-09-20T11:09:10;98670.03;;;15.67;57.26
64821;BME280;51256;55.654;37.264;2022-09-20T11:11:48;98684.03;;;15.69;57.83
64821;BME280;51256;55.654;37.264;2022-09-20T11:14:28;98674.75;;;15.65;57.34
64821;BME280;51256;55.654;37.264;2022-09-20T11:17:05;98684.22;;;15.61;57.84
64821;BME280;51256;55.654;37.264;2022-09-20T11:19:57;98698.38;;;15.55;57.74
64821;BME280;51256;55.654;37.264;2022-09-20T11:22:36;98693.13;;;15.40;57.68
64821;BME280;51256;55.654;37.264;2022-09-20T11:25:32;98693.06;;;15.33;57.86
64821;BME280;51256;55.654;37.264;2022-09-20T11:28:24;98699.91;;;15.43;57.79
64821;BME280;51256;55.654;37.264;2022-09-20T11:31:00;98698.06;;;15.43;57.43
64821;BME280;51256;55.654;37.264;2022-09-20T11:34:20;98701.03;;;15.55;57.19
64821;BME280;51256;55.654;37.264;2022-09-20T11:36:49;98699.28;;;15.69;56.82
64821;BME280;51256;55.654;37.264;2022-09-20T11:39:29;98703.00;;;15.75;56.38
64821;BME280;51256;55.654;37.264;2022-09-20T11:42:00;98718.72;;;15.56;56.49
64821;BME280;51256;55.654;37.264;2022-09-20T11:44:26;98720.59;;;15.55;56.95
64821;BME280;51256;55.654;37.264;2022-09-20T11:47:02;98720.84;;;15.67;57.29
64821;BME280;51256;55.654;37.264;2022-09-20T11:58:24;98730.16;;;16.00;56.96
64821;BME280;51256;55.654;37.264;2022-09-20T12:00:53;98718.28;;;16.09;57.08
64821;BME280;51256;55.654;37.264;2022-09-20T12:03:33;98720.59;;;16.19;56.55
64821;BME280;51256;55.654;37.264;2022-09-20T12:06:05;98721.81;;;16.16;56.67
64821;BME280;51256;55.654;37.264;2022-09-20T12:08:37;98735.78;;;16.12;56.95
64821;BME280;51256;55.654;37.264;2022-09-20T12:11:06;98739.72;;;16.16;56.98
64821;BME280;51256;55.654;37.264;2022-09-20T12:13:35;98737.50;;;16.26;56.62
64821;BME280;51256;55.654;37.264;2022-09-20T12:16:15;98734.28;;;16.37;56.52
64821;BME280;51256;55.654;37.264;2022-09-20T12:19:09;98745.81;;;16.38;56.74
64821;BME280;51256;55.654;37.264;2022-09-20T12:24:35;98738.53;;;16.25;56.69
64821;BME280;51256;55.654;37.264;2022-09-20T12:27:18;98740.72;;;16.15;56.72
64821;BME280;51256;55.654;37.264;2022-09-20T12:43:59;98754.97;;;15.59;58.15
64821;BME280;51256;55.654;37.264;2022-09-20T12:49:29;98758.88;;;15.34;58.36
64821;BME280;51256;55.654;37.264;2022-09-20T12:52:30;98757.06;;;15.35;58.96
64821;BME280;51256;55.654;37.264;2022-09-20T12:55:53;98764.16;;;15.49;58.72
64821;BME280;51256;55.654;37.264;2022-09-20T12:58:50;98765.44;;;15.32;58.85
64821;BME280;51256;55.654;37.264;2022-09-20T13:03:46;98768.59;;;15.14;59.42
64821;BME280;51256;55.654;37.264;2022-09-20T13:08:44;98770.47;;;14.98;59.23
64821;BME280;51256;55.654;37.264;2022-09-20T13:19:14;98779.31;;;15.42;58.33
64821;BME280;51256;55.654;37.264;2022-09-20T13:22:33;98770.06;;;15.66;57.81
64821;BME280;51256;55.654;37.264;2022-09-20T13:25:03;98782.97;;;16.13;56.78
64821;BME280;51256;55.654;37.264;2022-09-20T13:27:38;98764.81;;;16.08;56.16
64821;BME280;51256;55.654;37.264;2022-09-20T13:32:39;98773.88;;;15.79;56.30
64821;BME280;51256;55.654;37.264;2022-09-20T13:37:36;98791.66;;;15.65;56.83
64821;BME280;51256;55.654;37.264;2022-09-20T13:40:03;98802.44;;;15.50;56.69
64821;BME280;51256;55.654;37.264;2022-09-20T13:42:31;98794.75;;;15.40;57.18
64821;BME280;51256;55.654;37.264;2022-09-20T13:44:57;98798.63;;;15.37;57.01
64821;BME280;51256;55.654;37.264;2022-09-20T13:49:50;98794.69;;;15.12;57.96
64821;BME280;51256;55.654;37.264;2022-09-20T13:52:22;98801.34;;;15.01;58.29
64821;BME280;51256;55.654;37.264;2022-09-20T13:54:48;98785.72;;;14.83;58.75
64821;BME280;51256;55.654;37.264;2022-09-20T13:57:19;98805.91;;;14.85;58.91
64821;BME280;51256;55.654;37.264;2022-09-20T13:59:46;98811.59;;;14.82;59.28
64821;BME280;51256;55.654;37.264;2022-09-20T14:04:46;98810.41;;;15.00;59.09
64821;BME280;51256;55.654;37.264;2022-09-20T14:07:15;98812.75;;;15.10;59.43
64821;BME280;51256;55.654;37.264;2022-09-20T14:09:41;98803.25;;;15.07;59.18
64821;BME280;51256;55.654;37.264;2022-09-20T14:12:10;98816.88;;;15.12;59.34
64821;BME280;51256;55.654;37.264;2022-09-20T14:14:36;98817.06;;;15.11;59.30
64821;BME280;51256;55.654;37.264;2022-09-20T14:17:05;98811.91;;;15.09;59.28
64821;BME280;51256;55.654;37.264;2022-09-20T14:19:37;98818.41;;;15.00;59.81
64821;BME280;51256;55.654;37.264;2022-09-20T14:22:05;98828.19;;;14.93;60.00
64821;BME280;51256;55.654;37.264;2022-09-20T14:29:53;98832.25;;;14.88;60.26
64821;BME280;51256;55.654;37.264;2022-09-20T14:34:47;98829.00;;;14.93;60.02
64821;BME280;51256;55.654;37.264;2022-09-20T14:37:27;98826.72;;;14.90;59.79
64821;BME280;51256;55.654;37.264;2022-09-20T14:39:55;98840.97;;;14.97;59.92
64821;BME280;51256;55.654;37.264;2022-09-20T14:53:25;98844.13;;;16.09;56.06
64821;BME280;51256;55.654;37.264;2022-09-20T14:58:28;98850.16;;;15.10;58.72
64821;BME280;51256;55.654;37.264;2022-09-20T15:01:12;98860.63;;;14.89;59.65
64821;BME280;51256;55.654;37.264;2022-09-20T15:03:42;98848.13;;;14.75;59.59
64821;BME280;51256;55.654;37.264;2022-09-20T15:06:12;98862.03;;;14.70;60.10
64821;BME280;51256;55.654;37.264;2022-09-20T15:08:38;98856.44;;;14.65;60.12
64821;BME280;51256;55.654;37.264;2022-09-20T15:11:04;98859.25;;;14.64;60.30
64821;BME280;51256;55.654;37.264;2022-09-20T15:13:30;98859.63;;;14.75;60.15
64821;BME280;51256;55.654;37.264;2022-09-20T15:15:57;98863.69;;;15.23;59.21
64821;BME280;51256;55.654;37.264;2022-09-20T15:18:29;98864.28;;;15.62;57.98
64821;BME280;51256;55.654;37.264;2022-09-20T15:20:55;98863.78;;;15.51;58.17
64821;BME280;51256;55.654;37.264;2022-09-20T15:23:21;98874.69;;;15.13;58.91
64821;BME280;51256;55.654;37.264;2022-09-20T15:25:51;98872.81;;;14.77;60.11
64821;BME280;51256;55.654;37.264;2022-09-20T15:28:16;98882.84;;;14.45;60.69
64821;BME280;51256;55.654;37.264;2022-09-20T15:30:43;98872.59;;;14.19;61.75
64821;BME280;51256;55.654;37.264;2022-09-20T15:33:10;98874.03;;;14.06;62.12
64821;BME280;51256;55.654;37.264;2022-09-20T15:35:37;98878.69;;;13.89;62.32
64821;BME280;51256;55.654;37.264;2022-09-20T15:38:03;98885.31;;;13.78;62.73
64821;BME280;51256;55.654;37.264;2022-09-20T15:40:28;98886.72;;;13.66;63.21
64821;BME280;51256;55.654;37.264;2022-09-20T15:42:56;98898.28;;;13.58;63.66
64821;BME280;51256;55.654;37.264;2022-09-20T15:45:24;98899.28;;;13.57;63.64
64821;BME280;51256;55.654;37.264;2022-09-20T15:47:51;98904.25;;;13.60;63.70
64821;BME280;51256;55.654;37.264;2022-09-20T15:50:20;98904.06;;;13.62;63.77
64821;BME280;51256;55.654;37.264;2022-09-20T15:52:47;98918.25;;;13.62;63.83
64821;BME280;51256;55.654;37.264;2022-09-20T15:55:14;98913.63;;;13.56;64.02
64821;BME280;51256;55.654;37.264;2022-09-20T15:57:39;98913.16;;;13.53;64.23
64821;BME280;51256;55.654;37.264;2022-09-20T16:00:06;98927.19;;;13.46;63.90
64821;BME280;51256;55.654;37.264;2022-09-20T16:02:32;98928.88;;;13.39;64.49
64821;BME280;51256;55.654;37.264;2022-09-20T16:04:57;98925.06;;;13.34;64.66
64821;BME280;51256;55.654;37.264;2022-09-20T16:07:24;98919.94;;;13.24;64.70
64821;BME280;51256;55.654;37.264;2022-09-20T16:09:53;98927.75;;;13.25;64.78
64821;BME280;51256;55.654;37.264;2022-09-20T16:12:21;98923.63;;;13.23;65.05
64821;BME280;51256;55.654;37.264;2022-09-20T16:14:47;98922.81;;;13.22;65.01
64821;BME280;51256;55.654;37.264;2022-09-20T16:17:13;98923.97;;;13.20;64.98
64821;BME280;51256;55.654;37.264;2022-09-20T16:19:39;98927.34;;;13.13;65.38
64821;BME280;51256;55.654;37.264;2022-09-20T16:22:05;98927.88;;;13.01;65.31
64821;BME280;51256;55.654;37.264;2022-09-20T16:24:34;98928.75;;;12.93;65.96
64821;BME280;51256;55.654;37.264;2022-09-20T16:27:01;98934.75;;;12.87;66.12
64821;BME280;51256;55.654;37.264;2022-09-20T16:29:29;98934.28;;;12.83;66.32
64821;BME280;51256;55.654;37.264;2022-09-20T16:31:55;98933.31;;;12.76;66.59
64821;BME280;51256;55.654;37.264;2022-09-20T16:34:30;98929.84;;;12.67;66.58
64821;BME280;51256;55.654;37.264;2022-09-20T16:37:10;98935.84;;;12.61;66.90
64821;BME280;51256;55.654;37.264;2022-09-20T16:39:41;98938.34;;;12.54;67.18
64821;BME280;51256;55.654;37.264;2022-09-20T16:42:09;98941.00;;;12.54;67.07
64821;BME280;51256;55.654;37.264;2022-09-20T16:44:37;98931.72;;;12.50;67.21
64821;BME280;51256;55.654;37.264;2022-09-20T16:47:07;98936.53;;;12.46;67.59
64821;BME280;51256;55.654;37.264;2022-09-20T16:49:35;98938.38;;;12.46;67.55
64821;BME280;51256;55.654;37.264;2022-09-20T16:52:03;98947.19;;;12.46;67.40
64821;BME280;51256;55.654;37.264;2022-09-20T16:54:28;98943.88;;;12.44;67.45
64821;BME280;51256;55.654;37.264;2022-09-20T16:56:54;98945.03;;;12.42;67.78
64821;BME280;51256;55.654;37.264;2022-09-20T16:59:20;98945.03;;;12.42;67.93
64821;BME280;51256;55.654;37.264;2022-09-20T17:01:46;98947.38;;;12.45;67.71
64821;BME280;51256;55.654;37.264;2022-09-20T17:04:12;98944.19;;;12.41;67.86
64821;BME280;51256;55.654;37.264;2022-09-20T17:06:38;98943.88;;;12.36;68.02
64821;BME280;51256;55.654;37.264;2022-09-20T17:09:05;98953.84;;;12.34;68.29
64821;BME280;51256;55.654;37.264;2022-09-20T17:11:45;98952.03;;;12.26;68.32
64821;BME280;51256;55.654;37.264;2022-09-20T17:14:12;98955.03;;;12.15;68.62
64821;BME280;51256;55.654;37.264;2022-09-20T17:16:39;98953.38;;;12.06;68.65
64821;BME280;51256;55.654;37.264;2022-09-20T17:19:07;98964.34;;;12.03;68.96
64821;BME280;51256;55.654;37.264;2022-09-20T17:21:35;98964.34;;;11.94;69.26
64821;BME280;51256;55.654;37.264;2022-09-20T17:24:02;98962.31;;;11.88;69.25
64821;BME280;51256;55.654;37.264;2022-09-20T17:26:33;98968.47;;;11.89;69.37
64821;BME280;51256;55.654;37.264;2022-09-20T17:29:02;98976.94;;;11.84;69.65
64821;BME280;51256;55.654;37.264;2022-09-20T17:31:31;98973.44;;;11.75;69.63
64821;BME280;51256;55.654;37.264;2022-09-20T17:34:02;98963.44;;;11.69;69.89
64821;BME280;51256;55.654;37.264;2022-09-20T17:36:34;98977.25;;;11.64;70.30
64821;BME280;51256;55.654;37.264;2022-09-20T17:39:01;98977.56;;;11.61;70.18
64821;BME280;51256;55.654;37.264;2022-09-20T17:41:28;98977.38;;;11.55;70.44
64821;BME280;51256;55.654;37.264;2022-09-20T17:43:58;98981.03;;;11.54;70.74
64821;BME280;51256;55.654;37.264;2022-09-20T17:46:26;98981.22;;;11.52;70.98
64821;BME280;51256;55.654;37.264;2022-09-20T17:48:59;98979.72;;;11.49;70.94
64821;BME280;51256;55.654;37.264;2022-09-20T17:51:27;98981.69;;;11.47;70.83
64821;BME280;51256;55.654;37.264;2022-09-20T17:53:54;98982.66;;;11.46;70.96
64821;BME280;51256;55.654;37.264;2022-09-20T17:56:23;98979.50;;;11.43;70.73
64821;BME280;51256;55.654;37.264;2022-09-20T17:58:56;98971.34;;;11.36;70.88
64821;BME280;51256;55.654;37.264;2022-09-20T18:01:22;98974.47;;;11.31;71.33
64821;BME280;51256;55.654;37.264;2022-09-20T18:03:48;98976.63;;;11.28;71.53
64821;BME280;51256;55.654;37.264;2022-09-20T18:06:18;98978.47;;;11.27;71.73
64821;BME280;51256;55.654;37.264;2022-09-20T18:08:49;98978.78;;;11.24;71.43
64821;BME280;51256;55.654;37.264;2022-09-20T18:11:16;98977.25;;;11.22;71.56
64821;BME280;51256;55.654;37.264;2022-09-20T18:13:42;98978.28;;;11.21;71.64
64821;BME280;51256;55.654;37.264;2022-09-20T18:16:10;98981.75;;;11.21;71.93
64821;BME280;51256;55.654;37.264;2022-09-20T18:18:37;98988.22;;;11.18;71.68
64821;BME280;51256;55.654;37.264;2022-09-20T18:21:14;98972.81;;;11.22;72.18
64821;BME280;51256;55.654;37.264;2022-09-20T18:23:41;98974.78;;;11.20;71.83
64821;BME280;51256;55.654;37.264;2022-09-20T18:26:21;98975.25;;;11.15;72.20
64821;BME280;51256;55.654;37.264;2022-09-20T18:29:00;98985.22;;;11.13;72.46
64821;BME280;51256;55.654;37.264;2022-09-20T18:33:57;98986.78;;;10.90;72.30
64821;BME280;51256;55.654;37.264;2022-09-20T18:36:25;98995.66;;;10.80;72.71
64821;BME280;51256;55.654;37.264;2022-09-20T18:38:52;98984.84;;;10.74;72.75
64821;BME280;51256;55.654;37.264;2022-09-20T18:41:26;98984.66;;;10.67;73.16
64821;BME280;51256;55.654;37.264;2022-09-20T18:43:53;98992.63;;;10.67;73.15
64821;BME280;51256;55.654;37.264;2022-09-20T18:46:20;98993.06;;;10.62;73.67
64821;BME280;51256;55.654;37.264;2022-09-20T18:48:53;98991.41;;;10.61;73.27
64821;BME280;51256;55.654;37.264;2022-09-20T18:51:19;98985.91;;;10.54;73.20